Time;durP1;ratioP1;P1;durP2;ratioP2;P2;SDS_P1;SDS_P2;PMS_P1;PMS_P2;Temp;Humidity;BMP_temperature;BMP_pressure;BME280_temperature;BME280_humidity;BME280_pressure;Samples;Min_cycle;Max_cycle;Signal;HPM_P1;HPM_P2
2022/12/26 00:01:41;;;;;;;;;;;7.20;99.90;;;;;;5079455;28;19919;-92
2022/12/26 00:07:07;;;;;;;;;;;7.60;99.90;;;;;;5064143;28;19960;-94
2022/12/26 00:09:35;;;;;;;;;;;7.90;99.90;;;;;;5082971;28;19919;-91
2022/12/26 00:12:11;;;;;;;;;;;7.90;99.90;;;;;;5079070;28;19915;-91
2022/12/26 00:14:37;;;;;;;;;;;7.90;99.90;;;;;;4985121;28;19931;-91
2022/12/26 00:17:15;;;;;;;;;;;7.20;99.90;;;;;;5038751;28;19924;-91
2022/12/26 00:19:49;;;;;;;;;;;7.60;99.90;;;;;;5054073;28;19924;-91
2022/12/26 00:22:26;;;;;;;;;;;7.00;99.90;;;;;;5023707;28;19924;-91
2022/12/26 00:25:15;;;;;;;;;;;7.90;99.90;;;;;;5039347;28;19925;-92
2022/12/26 00:27:58;;;;;;;;;;;7.90;99.90;;;;;;5055625;28;20015;-91
2022/12/26 00:30:28;;;;;;;;;;;7.10;99.90;;;;;;5041334;28;19968;-91
2022/12/26 00:33:00;;;;;;;;;;;7.70;99.90;;;;;;5039478;28;19956;-90
2022/12/26 00:35:35;;;;;;;;;;;;;;;;;;;;;
2022/12/26 00:38:04;;;;;;;;;;;7.90;99.90;;;;;;5055543;28;19924;-92
2022/12/26 00:40:45;;;;;;;;;;;;;;;;;;;;;
2022/12/26 00:43:14;;;;;;;;;;;7.90;99.90;;;;;;5052770;28;19925;-91
2022/12/26 00:45:50;;;;;;;;;;;7.20;99.90;;;;;;5036007;28;19946;-91
2022/12/26 00:48:24;;;;;;;;;;;7.90;99.90;;;;;;5034181;28;20326;-90
2022/12/26 00:50:53;;;;;;;;;;;8.00;99.90;;;;;;5029644;28;19925;-91
2022/12/26 00:53:32;;;;;;;;;;;7.90;99.90;;;;;;5025772;28;20280;-90
2022/12/26 00:56:01;;;;;;;;;;;7.90;99.90;;;;;;5030292;28;19932;-91
2022/12/26 00:58:29;;;;;;;;;;;8.00;99.90;;;;;;5043358;28;19924;-90
2022/12/26 01:01:06;;;;;;;;;;;8.80;99.90;;;;;;5047067;28;20279;-91
2022/12/26 01:03:31;;;;;;;;;;;7.90;99.90;;;;;;5046050;28;20036;-91
2022/12/26 01:06:06;;;;;;;;;;;7.90;99.90;;;;;;5055285;28;19967;-92
2022/12/26 01:08:39;;;;;;;;;;;7.90;99.90;;;;;;5054915;28;19964;-90
2022/12/26 01:11:12;;;;;;;;;;;7.90;99.90;;;;;;5039260;28;19928;-91
2022/12/26 01:13:50;;;;;;;;;;;7.90;99.90;;;;;;5038418;28;19986;-91
2022/12/26 01:16:26;;;;;;;;;;;7.10;99.90;;;;;;5041414;28;19931;-91
2022/12/26 01:19:03;;;;;;;;;;;7.20;99.90;;;;;;5045878;28;19925;-91
2022/12/26 01:21:41;;;;;;;;;;;7.90;99.90;;;;;;5024216;28;19925;-91
2022/12/26 01:24:26;;;;;;;;;;;;;;;;;;;;;
2022/12/26 01:26:57;;;;;;;;;;;7.90;99.90;;;;;;5051578;28;19925;-91
2022/12/26 01:29:33;;;;;;;;;;;7.00;99.90;;;;;;5028895;28;19974;-91
2022/12/26 01:32:02;;;;;;;;;;;7.90;99.90;;;;;;5039664;28;19974;-91
2022/12/26 01:34:45;;;;;;;;;;;7.90;99.90;;;;;;5055247;28;19924;-90
2022/12/26 01:37:17;;;;;;;;;;;7.90;99.90;;;;;;5034642;28;19946;-91
2022/12/26 01:40:07;;;;;;;;;;;;;;;;;;;;;
2022/12/26 01:42:36;;;;;;;;;;;7.90;99.90;;;;;;5043820;28;19947;-91
2022/12/26 01:45:23;;;;;;;;;;;7.90;99.90;;;;;;5070492;28;20221;-91
2022/12/26 01:48:00;;;;;;;;;;;7.90;99.90;;;;;;5057706;28;19964;-91
2022/12/26 01:50:40;;;;;;;;;;;7.70;99.90;;;;;;5042845;28;19925;-91
2022/12/26 01:53:17;;;;;;;;;;;7.90;99.90;;;;;;5050643;28;20372;-91
2022/12/26 01:55:54;;;;;;;;;;;7.00;99.90;;;;;;5058641;28;19925;-91
2022/12/26 01:58:46;;;;;;;;;;;7.90;99.90;;;;;;5058015;28;19928;-92
2022/12/26 02:01:27;;;;;;;;;;;9.40;99.90;;;;;;5050282;28;19934;-91
2022/12/26 02:06:40;;;;;;;;;;;7.00;99.90;;;;;;5058664;28;20021;-92
2022/12/26 02:09:11;;;;;;;;;;;7.90;99.90;;;;;;5041556;28;19925;-92
2022/12/26 02:14:45;;;;;;;;;;;7.90;99.90;;;;;;5058167;28;20375;-91
2022/12/26 02:17:16;;;;;;;;;;;7.90;99.90;;;;;;5081242;28;19935;-91
2022/12/26 02:20:02;;;;;;;;;;;7.90;99.90;;;;;;5054942;28;20451;-91
2022/12/26 02:22:40;;;;;;;;;;;7.90;99.90;;;;;;5057987;28;19931;-92
2022/12/26 02:25:27;;;;;;;;;;;7.20;99.90;;;;;;5061667;28;19963;-93
2022/12/26 02:28:27;;;;;;;;;;;7.90;99.90;;;;;;5061516;28;19970;-91
2022/12/26 02:31:07;;;;;;;;;;;7.90;99.90;;;;;;5050576;28;19931;-91
2022/12/26 02:33:43;;;;;;;;;;;7.90;99.90;;;;;;5041311;28;19947;-91
2022/12/26 02:36:27;;;;;;;;;;;7.90;99.90;;;;;;5058087;28;19933;-92
2022/12/26 02:39:19;;;;;;;;;;;7.90;99.90;;;;;;5047497;28;19974;-91
2022/12/26 02:41:51;;;;;;;;;;;7.90;99.90;;;;;;5019706;28;19932;-91
2022/12/26 02:47:50;;;;;;;;;;;7.90;99.90;;;;;;5053824;28;19932;-90
2022/12/26 03:13:22;;;;;;;;;;;7.90;99.90;;;;;;5067160;28;19925;-90
2022/12/26 03:18:45;;;;;;;;;;;8.00;99.90;;;;;;5051539;28;19925;-91
2022/12/26 03:21:23;;;;;;;;;;;8.00;99.90;;;;;;5036241;28;19925;-91
2022/12/26 03:24:02;;;;;;;;;;;8.00;99.90;;;;;;5037600;28;20368;-91
2022/12/26 03:26:40;;;;;;;;;;;9.00;99.90;;;;;;5022569;28;19932;-90
2022/12/26 03:32:05;;;;;;;;;;;8.00;99.90;;;;;;5040645;28;19928;-91
2022/12/26 03:34:42;;;;;;;;;;;8.00;99.90;;;;;;5065778;28;19925;-91
2022/12/26 03:37:40;;;;;;;;;;;8.10;99.90;;;;;;5029986;28;19932;-90
2022/12/26 04:44:49;;;;;;;;;;;8.20;99.90;;;;;;5042769;28;20407;-91
2022/12/26 04:47:20;;;;;;;;;;;8.20;99.90;;;;;;5019108;28;20361;-90
2022/12/26 04:53:01;;;;;;;;;;;8.20;99.90;;;;;;5034193;28;20254;-90
2022/12/26 04:55:38;;;;;;;;;;;8.20;99.90;;;;;;5001623;28;19987;-90
2022/12/26 04:58:09;;;;;;;;;;;8.10;99.90;;;;;;5008683;28;19925;-89
2022/12/26 05:09:32;;;;;;;;;;;7.20;99.90;;;;;;5078225;28;19928;-90
2022/12/26 05:09:39;;;;;;;;;;;8.20;99.90;;;;;;5026334;28;19932;-91
2022/12/26 05:12:16;;;;;;;;;;;8.10;99.90;;;;;;5038239;28;19924;-89
2022/12/26 05:15:01;;;;;;;;;;;7.40;99.90;;;;;;5061896;28;19982;-90
2022/12/26 05:29:29;;;;;;;;;;;8.00;99.90;;;;;;5050379;28;19965;-90
2022/12/26 05:32:09;;;;;;;;;;;8.10;99.90;;;;;;5044066;28;19978;-90
2022/12/26 05:34:37;;;;;;;;;;;7.40;99.90;;;;;;5014722;28;19929;-90
2022/12/26 05:37:10;;;;;;;;;;;8.00;99.90;;;;;;5059571;28;19931;-90
2022/12/26 05:39:46;;;;;;;;;;;8.00;99.90;;;;;;5028293;28;19925;-89
2022/12/26 05:42:20;;;;;;;;;;;7.90;99.90;;;;;;5053585;28;19978;-90
2022/12/26 05:44:57;;;;;;;;;;;7.90;99.90;;;;;;5059900;28;19924;-89
2022/12/26 05:47:25;;;;;;;;;;;8.20;99.90;;;;;;5050763;28;20407;-90
2022/12/26 05:50:02;;;;;;;;;;;7.80;99.90;;;;;;5053707;28;20404;-89
2022/12/26 05:52:39;;;;;;;;;;;7.90;99.90;;;;;;5052014;28;19947;-89
2022/12/26 05:55:10;;;;;;;;;;;7.90;99.90;;;;;;5018907;28;19935;-90
2022/12/26 05:57:46;;;;;;;;;;;7.80;99.90;;;;;;5042448;28;19926;-89
2022/12/26 06:00:21;;;;;;;;;;;7.00;99.90;;;;;;5031956;28;19926;-90
2022/12/26 06:03:11;;;;;;;;;;;8.60;99.90;;;;;;5018743;28;20521;-89
2022/12/26 06:05:45;;;;;;;;;;;7.90;99.90;;;;;;5032683;28;20370;-89
2022/12/26 06:08:19;;;;;;;;;;;7.90;99.90;;;;;;5018162;28;20063;-89
2022/12/26 06:10:50;;;;;;;;;;;7.90;99.90;;;;;;5040302;28;20421;-91
2022/12/26 06:13:18;;;;;;;;;;;7.90;99.90;;;;;;5024576;28;20021;-89
2022/12/26 06:15:57;;;;;;;;;;;7.90;99.90;;;;;;5000348;28;19926;-89
2022/12/26 06:18:25;;;;;;;;;;;8.00;99.90;;;;;;5030918;28;19927;-90
2022/12/26 06:20:59;;;;;;;;;;;8.00;99.90;;;;;;5010528;28;19926;-90
2022/12/26 06:23:27;;;;;;;;;;;8.00;99.90;;;;;;5006111;28;20305;-90
2022/12/26 06:25:56;;;;;;;;;;;8.10;99.90;;;;;;4994585;28;19985;-90
2022/12/26 06:28:31;;;;;;;;;;;8.00;99.90;;;;;;5014872;28;19927;-90
2022/12/26 06:31:10;;;;;;;;;;;8.00;99.90;;;;;;5040537;28;19927;-91
2022/12/26 06:33:41;;;;;;;;;;;8.00;99.90;;;;;;4953486;28;20404;-91
2022/12/26 06:36:21;;;;;;;;;;;7.80;99.90;;;;;;4949353;28;19934;-91
2022/12/26 06:39:00;;;;;;;;;;;7.90;99.90;;;;;;5035177;28;19933;-90
2022/12/26 06:41:53;;;;;;;;;;;8.10;99.90;;;;;;5026145;28;20017;-89
2022/12/26 06:44:26;;;;;;;;;;;7.30;99.90;;;;;;5032557;28;19945;-90
2022/12/26 06:47:01;;;;;;;;;;;;;;;;;;;;;
2022/12/26 06:49:30;;;;;;;;;;;8.10;99.90;;;;;;5042138;28;20421;-90
2022/12/26 06:52:01;;;;;;;;;;;8.20;99.90;;;;;;5054192;28;19924;-90
2022/12/26 06:54:39;;;;;;;;;;;8.10;99.90;;;;;;5025473;28;19972;-91
2022/12/26 06:57:05;;;;;;;;;;;8.20;99.90;;;;;;5009931;28;20013;-90
2022/12/26 06:59:36;;;;;;;;;;;8.10;99.90;;;;;;5049374;28;20279;-90
2022/12/26 07:02:06;;;;;;;;;;;9.30;99.90;;;;;;5052320;28;19925;-90
2022/12/26 07:04:32;;;;;;;;;;;8.10;99.90;;;;;;5039294;28;19939;-91
2022/12/26 07:07:09;;;;;;;;;;;8.10;99.90;;;;;;5040938;28;19924;-90
2022/12/26 07:12:33;;;;;;;;;;;8.10;99.90;;;;;;5022915;28;19937;-89
2022/12/26 07:15:11;;;;;;;;;;;;;;;;;;;;;
2022/12/26 07:18:02;;;;;;;;;;;7.30;99.90;;;;;;5055395;28;19932;-90
2022/12/26 07:20:50;;;;;;;;;;;8.10;99.90;;;;;;4987968;28;20376;-89
2022/12/26 07:23:18;;;;;;;;;;;7.80;99.90;;;;;;5042199;28;19971;-90
2022/12/26 07:25:47;;;;;;;;;;;8.20;99.90;;;;;;5053695;28;20034;-90
2022/12/26 07:28:25;;;;;;;;;;;;;;;;;;;;;
2022/12/26 07:31:04;;;;;;;;;;;;;;;;;;;;;
2022/12/26 07:33:50;;;;;;;;;;;8.20;99.90;;;;;;5056053;28;19924;-91
2022/12/26 07:36:21;;;;;;;;;;;8.20;99.90;;;;;;4971360;28;20288;-90
2022/12/26 07:38:49;;;;;;;;;;;8.20;99.90;;;;;;5018272;28;19997;-90
2022/12/26 07:44:05;;;;;;;;;;;8.20;99.90;;;;;;5066176;28;19925;-89
2022/12/26 07:46:36;;;;;;;;;;;8.10;99.90;;;;;;5033019;28;19926;-91
2022/12/26 07:49:07;;;;;;;;;;;8.00;99.90;;;;;;5053812;28;19935;-90
2022/12/26 07:51:37;;;;;;;;;;;8.00;99.90;;;;;;5046228;28;19931;-89
2022/12/26 07:54:03;;;;;;;;;;;7.90;99.90;;;;;;4994813;28;20245;-89
2022/12/26 07:56:32;;;;;;;;;;;8.00;99.90;;;;;;5023664;28;19974;-90
2022/12/26 07:58:57;;;;;;;;;;;7.20;99.90;;;;;;4986220;28;20335;-88
2022/12/26 08:01:30;;;;;;;;;;;7.70;99.90;;;;;;4993073;28;19925;-89
2022/12/26 08:03:56;;;;;;;;;;;7.90;99.90;;;;;;5054872;28;20270;-90
2022/12/26 08:06:26;;;;;;;;;;;8.00;99.90;;;;;;5016591;28;19928;-90
2022/12/26 08:09:12;;;;;;;;;;;8.00;99.90;;;;;;5069310;28;20012;-90
2022/12/26 08:11:47;;;;;;;;;;;8.00;99.90;;;;;;5025353;28;20280;-89
2022/12/26 08:14:21;;;;;;;;;;;7.50;99.90;;;;;;5017308;28;20284;-89
2022/12/26 08:16:53;;;;;;;;;;;7.60;99.90;;;;;;5023261;28;19928;-89
2022/12/26 08:19:25;;;;;;;;;;;8.90;99.90;;;;;;5021658;28;19983;-90
2022/12/26 08:22:06;;;;;;;;;;;8.20;99.90;;;;;;5039174;28;19943;-89
2022/12/26 08:24:34;;;;;;;;;;;8.20;99.90;;;;;;5027361;28;20363;-89
2022/12/26 08:27:14;;;;;;;;;;;7.40;99.90;;;;;;5022573;28;19925;-89
2022/12/26 08:30:01;;;;;;;;;;;7.40;99.90;;;;;;4990225;28;19932;-92
2022/12/26 08:32:32;;;;;;;;;;;8.20;99.90;;;;;;5027839;28;19925;-92
2022/12/26 08:34:57;;;;;;;;;;;7.40;99.90;;;;;;5042959;28;19931;-90
2022/12/26 08:37:41;;;;;;;;;;;8.30;99.90;;;;;;5057335;28;19925;-90
2022/12/26 08:40:10;;;;;;;;;;;9.30;99.90;;;;;;5060426;28;19972;-90
2022/12/26 08:42:39;;;;;;;;;;;8.30;99.90;;;;;;5073006;28;19924;-89
2022/12/26 08:45:05;;;;;;;;;;;8.40;99.90;;;;;;5063674;28;20290;-89
2022/12/26 08:47:39;;;;;;;;;;;8.40;99.90;;;;;;5044842;28;20410;-89
2022/12/26 08:50:15;;;;;;;;;;;8.40;99.90;;;;;;5050993;28;19960;-90
2022/12/26 08:52:41;;;;;;;;;;;8.30;99.90;;;;;;5044539;28;20313;-90
2022/12/26 08:55:15;;;;;;;;;;;8.30;99.90;;;;;;5059332;28;19920;-92
2022/12/26 08:57:43;;;;;;;;;;;8.30;99.90;;;;;;5050231;28;19914;-89
2022/12/26 09:00:09;;;;;;;;;;;8.40;99.90;;;;;;5043260;28;19933;-91
2022/12/26 09:02:40;;;;;;;;;;;7.50;99.90;;;;;;5041116;28;19930;-91
2022/12/26 09:05:11;;;;;;;;;;;7.50;99.90;;;;;;5017890;28;19931;-89
2022/12/26 09:07:46;;;;;;;;;;;8.30;99.90;;;;;;5051020;28;19926;-89
2022/12/26 09:10:12;;;;;;;;;;;8.40;99.90;;;;;;5048600;28;19938;-91
2022/12/26 09:12:38;;;;;;;;;;;8.20;99.90;;;;;;5052395;28;19931;-92
2022/12/26 09:15:09;;;;;;;;;;;8.30;99.90;;;;;;5039128;28;19930;-90
2022/12/26 09:17:55;;;;;;;;;;;8.40;99.90;;;;;;5036299;28;19952;-93
2022/12/26 09:20:26;;;;;;;;;;;8.30;99.90;;;;;;5046965;28;20293;-89
2022/12/26 09:23:15;;;;;;;;;;;7.70;99.90;;;;;;4958867;28;19926;-91
2022/12/26 09:31:54;;;;;;;;;;;;;;;;;;;;;
2022/12/26 09:41:18;;;;;;;;;;;7.60;99.90;;;;;;5015986;28;19979;-94
2022/12/26 09:44:04;;;;;;;;;;;8.50;99.90;;;;;;5039709;28;19925;-94
2022/12/26 09:47:23;;;;;;;;;;;8.50;99.90;;;;;;5008525;28;19925;-94
2022/12/26 09:53:58;;;;;;;;;;;8.60;99.90;;;;;;4860306;29;20435;-93
2022/12/26 09:56:47;;;;;;;;;;;;;;;;;;;;;
2022/12/26 10:02:46;;;;;;;;;;;7.50;99.90;;;;;;4962261;28;19937;-95
2022/12/26 10:15:02;;;;;;;;;;;7.90;99.90;;;;;;5011919;28;20416;-91
2022/12/26 10:17:38;;;;;;;;;;;7.40;99.90;;;;;;5029548;28;20338;-91
2022/12/26 10:20:32;;;;;;;;;;;7.40;99.90;;;;;;5031413;28;19969;-93
2022/12/26 10:23:26;;;;;;;;;;;;;;;;;;;;;
2022/12/26 10:26:16;;;;;;;;;;;7.10;99.90;;;;;;5044924;28;19933;-91
2022/12/26 10:29:00;;;;;;;;;;;7.20;99.90;;;;;;5030404;28;19930;-89
2022/12/26 10:31:51;;;;;;;;;;;6.40;99.90;;;;;;5030346;28;20019;-88
2022/12/26 10:34:30;;;;;;;;;;;;;;;;;;;;;
2022/12/26 10:37:17;;;;;;;;;;;7.10;99.90;;;;;;5038505;28;20381;-90
2022/12/26 10:42:51;;;;;;;;;;;;;;;;;;;;;
2022/12/26 10:45:40;;;;;;;;;;;6.90;99.90;;;;;;5046094;28;19933;-90
2022/12/26 10:48:19;;;;;;;;;;;7.30;99.90;;;;;;5051147;28;19929;-90
2022/12/26 10:51:21;;;;;;;;;;;;;;;;;;;;;
2022/12/26 10:54:00;;;;;;;;;;;5.90;99.90;;;;;;5028321;28;19933;-90
2022/12/26 10:56:28;;;;;;;;;;;6.10;99.90;;;;;;5043815;28;19926;-90
2022/12/26 10:59:00;;;;;;;;;;;7.10;99.90;;;;;;5021632;28;19979;-91
2022/12/26 11:02:03;;;;;;;;;;;7.10;99.90;;;;;;5044717;28;19996;-88
2022/12/26 11:04:44;;;;;;;;;;;6.90;99.90;;;;;;5052692;28;20001;-90
2022/12/26 11:07:31;;;;;;;;;;;;;;;;;;;;;
2022/12/26 11:10:15;;;;;;;;;;;6.80;99.90;;;;;;5052295;28;19925;-89
2022/12/26 11:15:52;;;;;;;;;;;6.80;99.90;;;;;;5043066;28;19950;-89
2022/12/26 11:18:33;;;;;;;;;;;6.70;99.90;;;;;;5024243;28;20377;-90
2022/12/26 11:21:18;;;;;;;;;;;6.80;99.90;;;;;;5041710;28;20293;-90
2022/12/26 11:24:34;;;;;;;;;;;6.80;99.90;;;;;;5069507;28;19924;-90
2022/12/26 11:27:19;;;;;;;;;;;7.30;99.90;;;;;;5023497;28;19982;-90
2022/12/26 11:30:33;;;;;;;;;;;7.10;99.90;;;;;;5058534;28;20387;-91
2022/12/26 11:33:09;;;;;;;;;;;6.80;99.90;;;;;;5050445;28;19924;-89
2022/12/26 11:35:50;;;;;;;;;;;5.90;99.90;;;;;;5051940;28;19928;-95
2022/12/26 11:38:43;;;;;;;;;;;6.90;99.90;;;;;;5038404;28;19925;-88
2022/12/26 11:47:22;;;;;;;;;;;6.80;99.90;;;;;;5027074;28;19931;-90
2022/12/26 11:50:34;;;;;;;;;;;6.90;99.90;;;;;;5057565;28;20372;-91
2022/12/26 11:53:18;;;;;;;;;;;;;;;;;;;;;
2022/12/26 11:56:20;;;;;;;;;;;6.70;99.90;;;;;;5084601;28;19935;-90
2022/12/26 11:59:13;;;;;;;;;;;6.00;99.90;;;;;;5053067;28;19959;-90
2022/12/26 12:02:00;;;;;;;;;;;7.60;99.90;;;;;;5039253;28;19983;-90
2022/12/26 12:04:33;;;;;;;;;;;8.00;99.90;;;;;;5039935;28;20003;-90
2022/12/26 12:07:32;;;;;;;;;;;;;;;;;;;;;
2022/12/26 12:10:30;;;;;;;;;;;6.70;99.90;;;;;;5020352;28;20019;-92
2022/12/26 12:13:21;;;;;;;;;;;;;;;;;;;;;
2022/12/26 12:16:13;;;;;;;;;;;;;;;;;;;;;
2022/12/26 12:19:09;;;;;;;;;;;5.90;99.90;;;;;;5070278;28;19931;-89
2022/12/26 12:21:41;;;;;;;;;;;6.80;99.90;;;;;;5058815;28;20023;-91
2022/12/26 12:24:13;;;;;;;;;;;6.80;99.90;;;;;;5041896;28;19931;-90
2022/12/26 12:27:12;;;;;;;;;;;;;;;;;;;;;
2022/12/26 12:29:54;;;;;;;;;;;;;;;;;;;;;
2022/12/26 12:32:39;;;;;;;;;;;6.80;99.90;;;;;;5055147;28;20295;-91
2022/12/26 12:35:22;;;;;;;;;;;6.80;99.90;;;;;;5039534;28;19928;-91
2022/12/26 12:38:27;;;;;;;;;;;;;;;;;;;;;
2022/12/26 12:44:51;;;;;;;;;;;6.70;99.90;;;;;;5001497;28;20309;-93
2022/12/26 12:50:56;;;;;;;;;;;;;;;;;;;;;
2022/12/26 12:54:21;;;;;;;;;;;7.30;99.90;;;;;;5057174;28;20256;-95
2022/12/26 13:00:40;;;;;;;;;;;;;;;;;;;;;
2022/12/26 13:03:58;;;;;;;;;;;6.60;99.90;;;;;;4953787;29;19926;-93
2022/12/26 13:10:11;;;;;;;;;;;6.60;99.90;;;;;;4989926;28;19925;-91
2022/12/26 13:16:16;;;;;;;;;;;;;;;;;;;;;
2022/12/26 13:18:50;;;;;;;;;;;5.80;99.90;;;;;;5087680;28;19925;-93
2022/12/26 13:21:46;;;;;;;;;;;;;;;;;;;;;
2022/12/26 13:24:33;;;;;;;;;;;6.70;99.90;;;;;;5094684;28;19956;-88
2022/12/26 13:27:16;;;;;;;;;;;5.60;99.90;;;;;;5094576;28;19928;-90
2022/12/26 13:29:59;;;;;;;;;;;;;;;;;;;;;
2022/12/26 13:32:49;;;;;;;;;;;6.40;99.90;;;;;;5082092;28;19924;-94
2022/12/26 13:35:36;;;;;;;;;;;6.50;99.90;;;;;;5073925;28;19946;-92
2022/12/26 13:38:09;;;;;;;;;;;6.40;99.90;;;;;;5063066;28;19968;-91
2022/12/26 13:44:24;;;;;;;;;;;6.30;99.90;;;;;;5034379;28;20237;-91
2022/12/26 13:47:10;;;;;;;;;;;6.00;99.90;;;;;;5060845;28;19924;-91
2022/12/26 13:50:06;;;;;;;;;;;;;;;;;;;;;
2022/12/26 13:52:58;;;;;;;;;;;5.20;99.90;;;;;;5071482;28;20007;-93
2022/12/26 13:58:57;;;;;;;;;;;6.00;99.90;;;;;;4437802;28;17166808;-90
2022/12/26 14:01:41;;;;;;;;;;;6.00;99.90;;;;;;5061803;28;19925;-91
2022/12/26 14:07:35;;;;;;;;;;;6.10;99.90;;;;;;5008479;28;20016;-90
2022/12/26 14:10:48;;;;;;;;;;;;;;;;;;;;;
2022/12/26 14:13:30;;;;;;;;;;;5.90;99.90;;;;;;5052908;28;19929;-91
2022/12/26 14:16:07;;;;;;;;;;;6.00;99.90;;;;;;5038167;28;20273;-91
2022/12/26 14:18:36;;;;;;;;;;;6.10;99.90;;;;;;5056684;28;19929;-91
2022/12/26 14:21:21;;;;;;;;;;;6.80;99.90;;;;;;5041031;28;20024;-93
2022/12/26 14:24:14;;;;;;;;;;;5.80;99.90;;;;;;5070998;28;19932;-92
2022/12/26 14:27:25;;;;;;;;;;;;;;;;;;;;;
2022/12/26 14:33:27;;;;;;;;;;;5.90;99.90;;;;;;5060816;28;20298;-93
2022/12/26 14:36:21;;;;;;;;;;;5.70;99.90;;;;;;5000276;28;19931;-91
2022/12/26 14:39:16;;;;;;;;;;;5.70;99.90;;;;;;5050465;28;19947;-93
2022/12/26 14:45:20;;;;;;;;;;;;;;;;;;;;;
2022/12/26 14:48:06;;;;;;;;;;;5.70;99.90;;;;;;5057238;28;20249;-94
2022/12/26 14:51:06;;;;;;;;;;;5.20;99.90;;;;;;5025644;28;19931;-94
2022/12/26 14:54:05;;;;;;;;;;;;;;;;;;;;;
2022/12/26 14:56:54;;;;;;;;;;;4.20;99.90;;;;;;5058225;28;19924;-93
2022/12/26 15:00:02;;;;;;;;;;;;;;;;;;;;;
2022/12/26 15:06:03;;;;;;;;;;;;;;;;;;;;;
2022/12/26 15:08:47;;;;;;;;;;;5.30;99.90;;;;;;5066694;28;19925;-93
2022/12/26 15:11:58;;;;;;;;;;;4.80;99.90;;;;;;5040915;28;20373;-93
2022/12/26 15:14:29;;;;;;;;;;;5.10;99.90;;;;;;5040105;28;20504;-93
2022/12/26 15:16:57;;;;;;;;;;;5.10;99.90;;;;;;5050977;28;19924;-93
2022/12/26 15:19:44;;;;;;;;;;;5.00;99.90;;;;;;5057306;28;19924;-93
2022/12/26 15:22:58;;;;;;;;;;;;;;;;;;;;;
2022/12/26 15:29:20;;;;;;;;;;;4.70;99.90;;;;;;5061785;28;19976;-96
2022/12/26 15:32:18;;;;;;;;;;;4.80;99.90;;;;;;5006316;28;19970;-94
2022/12/26 15:35:45;;;;;;;;;;;;;;;;;;;;;
2022/12/26 15:42:17;;;;;;;;;;;;;;;;;;;;;
2022/12/26 15:54:52;;;;;;;;;;;4.00;99.90;;;;;;5059582;28;19947;-96
2022/12/26 16:01:32;;;;;;;;;;;3.50;99.90;;;;;;4882745;28;19927;-94
2022/12/26 16:07:48;;;;;;;;;;;;;;;;;;;;;
2022/12/26 16:11:00;;;;;;;;;;;3.70;99.90;;;;;;4986435;28;19925;-93
2022/12/26 16:13:54;;;;;;;;;;;4.40;99.90;;;;;;4979798;28;20496;-96
2022/12/26 16:16:47;;;;;;;;;;;;;;;;;;;;;
2022/12/26 16:19:46;;;;;;;;;;;4.30;99.90;;;;;;5013474;28;19944;-93
2022/12/26 16:22:56;;;;;;;;;;;;;;;;;;;;;
2022/12/26 16:25:30;;;;;;;;;;;3.20;99.90;;;;;;4995100;28;19968;-95
2022/12/26 16:28:06;;;;;;;;;;;3.60;99.90;;;;;;4995163;28;19997;-93
2022/12/26 16:30:44;;;;;;;;;;;4.50;99.90;;;;;;4995078;28;19926;-92
2022/12/26 16:33:18;;;;;;;;;;;4.00;99.90;;;;;;4989936;28;19945;-91
2022/12/26 16:35:54;;;;;;;;;;;;;;;;;;;;;
2022/12/26 16:38:28;;;;;;;;;;;4.00;99.90;;;;;;4994791;28;19937;-92
2022/12/26 16:40:59;;;;;;;;;;;4.40;99.90;;;;;;4995233;28;19973;-90
2022/12/26 16:43:40;;;;;;;;;;;;;;;;;;;;;
2022/12/26 16:46:35;;;;;;;;;;;4.30;99.90;;;;;;5027973;28;20331;-90
2022/12/26 16:49:24;;;;;;;;;;;4.30;99.90;;;;;;5018866;28;19972;-93
2022/12/26 16:52:38;;;;;;;;;;;;;;;;;;;;;
2022/12/26 16:58:56;;;;;;;;;;;4.30;99.90;;;;;;5026364;28;19935;-93
2022/12/26 17:01:47;;;;;;;;;;;4.20;99.90;;;;;;5033840;28;20376;-92
2022/12/26 17:04:38;;;;;;;;;;;5.10;99.90;;;;;;5041134;28;19948;-91
2022/12/26 17:07:08;;;;;;;;;;;3.00;99.90;;;;;;5044131;28;19931;-91
2022/12/26 17:09:40;;;;;;;;;;;4.00;99.90;;;;;;5053696;28;19925;-94
2022/12/26 17:12:09;;;;;;;;;;;4.20;99.90;;;;;;5055655;28;20355;-95
2022/12/26 17:14:48;;;;;;;;;;;4.10;99.90;;;;;;5047802;28;20318;-93
2022/12/26 17:17:36;;;;;;;;;;;;;;;;;;;;;
2022/12/26 17:20:43;;;;;;;;;;;3.90;99.90;;;;;;5070143;28;20395;-94
2022/12/26 17:23:52;;;;;;;;;;;3.80;99.90;;;;;;5026369;28;19929;-94
2022/12/26 17:26:29;;;;;;;;;;;3.90;99.90;;;;;;5014541;28;19955;-89
2022/12/26 17:29:13;;;;;;;;;;;3.80;99.90;;;;;;5053940;28;19932;-92
2022/12/26 17:31:57;;;;;;;;;;;;;;;;;;;;;
2022/12/26 17:34:41;;;;;;;;;;;3.30;99.90;;;;;;5056889;28;20274;-94
2022/12/26 17:37:26;;;;;;;;;;;3.80;99.90;;;;;;5068842;28;19912;-93
2022/12/26 17:39:59;;;;;;;;;;;3.80;99.90;;;;;;5061435;28;19908;-92
2022/12/26 17:42:25;;;;;;;;;;;3.40;99.90;;;;;;5089275;28;19920;-91
2022/12/26 17:44:51;;;;;;;;;;;3.60;99.90;;;;;;5051619;28;19940;-92
2022/12/26 17:47:45;;;;;;;;;;;3.60;99.90;;;;;;5069155;28;19934;-91
2022/12/26 17:50:14;;;;;;;;;;;3.60;99.90;;;;;;5095177;28;19923;-93
2022/12/26 17:52:42;;;;;;;;;;;3.90;99.90;;;;;;5062050;28;19939;-91
2022/12/26 17:55:24;;;;;;;;;;;3.40;99.90;;;;;;5072505;28;19982;-89
2022/12/26 17:57:50;;;;;;;;;;;2.40;99.90;;;;;;5039246;28;20272;-87
2022/12/26 18:00:22;;;;;;;;;;;2.40;99.90;;;;;;5037264;28;19929;-89
2022/12/26 18:02:50;;;;;;;;;;;3.30;99.90;;;;;;5035614;28;19972;-89
2022/12/26 18:08:24;;;;;;;;;;;2.30;99.90;;;;;;5076477;28;19928;-88
2022/12/26 18:10:53;;;;;;;;;;;3.20;99.90;;;;;;5045860;28;19932;-90
2022/12/26 18:13:39;;;;;;;;;;;3.20;99.90;;;;;;5025035;28;19961;-90
2022/12/26 18:16:07;;;;;;;;;;;3.20;99.90;;;;;;5043359;28;19936;-93
2022/12/26 18:21:46;;;;;;;;;;;3.80;99.90;;;;;;5057301;28;19924;-92
2022/12/26 18:24:19;;;;;;;;;;;3.20;99.90;;;;;;5040754;28;20368;-92
2022/12/26 18:26:55;;;;;;;;;;;3.70;99.90;;;;;;5051069;28;19929;-93
2022/12/26 18:29:49;;;;;;;;;;;;;;;;;;;;;
2022/12/26 18:32:34;;;;;;;;;;;3.10;99.90;;;;;;5072843;28;20344;-93
2022/12/26 18:35:03;;;;;;;;;;;3.00;99.90;;;;;;5050004;28;19929;-92
2022/12/26 18:37:39;;;;;;;;;;;3.10;99.90;;;;;;5056238;28;19932;-92
2022/12/26 18:40:13;;;;;;;;;;;3.40;99.90;;;;;;5044422;28;19925;-93
2022/12/26 18:42:55;;;;;;;;;;;;;;;;;;;;;
2022/12/26 18:45:55;;;;;;;;;;;1.60;99.90;;;;;;5074927;28;19978;-91
2022/12/26 18:48:31;;;;;;;;;;;2.80;99.90;;;;;;5058204;28;20153;-90
2022/12/26 18:51:30;;;;;;;;;;;;;;;;;;;;;
2022/12/26 18:54:02;;;;;;;;;;;4.70;99.90;;;;;;5062909;28;19924;-92
2022/12/26 18:56:39;;;;;;;;;;;2.60;99.90;;;;;;5069518;28;20033;-92
2022/12/26 18:59:12;;;;;;;;;;;2.50;99.90;;;;;;5051388;28;20008;-92
2022/12/26 19:01:51;;;;;;;;;;;4.50;99.90;;;;;;5027458;28;19925;-94
2022/12/26 19:04:17;;;;;;;;;;;2.90;99.90;;;;;;5050039;28;20320;-92
2022/12/26 19:06:52;;;;;;;;;;;2.50;99.90;;;;;;5055384;28;20012;-94
2022/12/26 19:09:46;;;;;;;;;;;3.90;99.90;;;;;;5049237;28;19929;-93
2022/12/26 19:12:15;;;;;;;;;;;3.00;99.90;;;;;;5026330;28;19970;-93
2022/12/26 19:14:54;;;;;;;;;;;1.60;99.90;;;;;;5041730;28;19942;-93
2022/12/26 19:17:20;;;;;;;;;;;2.80;99.90;;;;;;5041433;28;19983;-92
2022/12/26 19:20:09;;;;;;;;;;;2.70;99.90;;;;;;5034838;28;19924;-92
2022/12/26 19:22:34;;;;;;;;;;;2.80;99.90;;;;;;5042002;28;20304;-91
2022/12/26 19:25:04;;;;;;;;;;;2.50;99.90;;;;;;5041273;28;19924;-92
2022/12/26 19:27:38;;;;;;;;;;;3.00;99.90;;;;;;5023889;28;20016;-92
2022/12/26 19:30:07;;;;;;;;;;;3.20;99.90;;;;;;5024743;28;19928;-92
2022/12/26 19:32:53;;;;;;;;;;;1.90;99.90;;;;;;5040865;28;20438;-94
2022/12/26 19:35:22;;;;;;;;;;;3.00;99.90;;;;;;5023064;28;19971;-92
2022/12/26 19:37:53;;;;;;;;;;;3.10;99.90;;;;;;5039843;28;19928;-92
2022/12/26 19:40:39;;;;;;;;;;;;;;;;;;;;;
2022/12/26 19:46:32;;;;;;;;;;;3.30;99.90;;;;;;5041693;28;19925;-94
2022/12/26 19:52:17;;;;;;;;;;;3.40;99.90;;;;;;5062485;28;19960;-93
2022/12/26 19:54:52;;;;;;;;;;;3.50;99.90;;;;;;5047956;28;19925;-92
2022/12/26 19:57:25;;;;;;;;;;;1.70;99.90;;;;;;5025244;28;20467;-92
2022/12/26 19:59:51;;;;;;;;;;;3.10;99.90;;;;;;5017449;28;19930;-91
2022/12/26 20:02:37;;;;;;;;;;;2.70;99.90;;;;;;5032083;28;19934;-91
2022/12/26 20:05:10;;;;;;;;;;;4.50;99.90;;;;;;5039586;28;20063;-92
2022/12/26 20:07:46;;;;;;;;;;;3.00;99.90;;;;;;5013222;28;19926;-92
2022/12/26 20:10:24;;;;;;;;;;;3.10;99.90;;;;;;5040100;28;19930;-90
2022/12/26 20:13:04;;;;;;;;;;;4.10;99.90;;;;;;4994136;28;20008;-91
2022/12/26 20:16:07;;;;;;;;;;;5.00;99.90;;;;;;4965171;28;19934;-91
2022/12/26 20:21:28;;;;;;;;;;;4.30;99.90;;;;;;5034548;28;20015;-91
2022/12/26 20:24:07;;;;;;;;;;;4.70;99.90;;;;;;5023452;28;19948;-89
2022/12/26 20:26:44;;;;;;;;;;;3.20;99.90;;;;;;5059975;28;19924;-91
2022/12/26 20:29:17;;;;;;;;;;;4.00;99.90;;;;;;5019889;28;19934;-91
2022/12/26 20:31:43;;;;;;;;;;;2.80;99.90;;;;;;4950342;28;19975;-91
2022/12/26 20:34:24;;;;;;;;;;;;;;;;;;;;;
2022/12/26 20:36:59;;;;;;;;;;;2.80;99.90;;;;;;5034218;28;19932;-90
2022/12/26 20:39:38;;;;;;;;;;;;;;;;;;;;;
2022/12/26 20:42:26;;;;;;;;;;;3.80;99.90;;;;;;5035097;28;20080;-92
2022/12/26 20:44:55;;;;;;;;;;;3.30;99.90;;;;;;5019913;28;20294;-91
2022/12/26 20:47:53;;;;;;;;;;;3.90;99.90;;;;;;4977253;28;20366;-91
2022/12/26 20:50:25;;;;;;;;;;;2.70;99.90;;;;;;5034709;28;19964;-91
2022/12/26 20:53:03;;;;;;;;;;;2.80;99.90;;;;;;5004007;28;19976;-90